Terminal Aerodrome Forecast
Issued by NWS

Current Version | Previous Version | Text Only | Print | Product List | Glossary On
Versions: 1 2 3 4 5 6 7 8 9 10 11 12 13 14 15 16 17 18 19
608
FTUS46 KMTR 271135 CCA
TAFSTS
TAF COR
KSTS 271135Z 2712/2812 VRB03KT P6SM FEW005 SCT020
      TEMPO 2712/2716 BKN020
     FM271700 VRB03KT P6SM FEW020
     FM272100 19009KT P6SM SKC
     FM280500 16004KT P6SM SCT010
     FM280800 VRB02KT P6SM BKN008=

USA.gov is the U.S. government's official web portal to all federal, state and local government web resources and services.